Time;durP1;ratioP1;P1;durP2;ratioP2;P2;SDS_P1;SDS_P2;PMS_P1;PMS_P2;Temp;Humidity;BMP_temperature;BMP_pressure;BME280_temperature;BME280_humidity;BME280_pressure;Samples;Min_cycle;Max_cycle;Signal;HPM_P1;HPM_P2
2022/04/29 00:01:18;;;;;;;11.67;6.37;;;8.50;99.90;;;;;;5015278;28;20661;-38
2022/04/29 00:03:44;;;;;;;7.93;6.07;;;8.50;99.90;;;;;;5015508;28;20186;-40
2022/04/29 00:06:09;;;;;;;16.13;5.63;;;8.50;99.90;;;;;;5015208;28;20189;-40
2022/04/29 00:08:36;;;;;;;12.67;6.70;;;8.50;99.90;;;;;;5015463;28;20184;-40
2022/04/29 00:11:01;;;;;;;12.13;6.20;;;8.50;99.90;;;;;;5015330;28;20547;-40
2022/04/29 00:13:28;;;;;;;11.80;6.20;;;8.50;99.90;;;;;;5015620;28;20174;-40
2022/04/29 00:15:53;;;;;;;10.83;5.87;;;8.50;99.90;;;;;;5014920;28;20202;-40
2022/04/29 00:18:19;;;;;;;11.60;5.93;;;8.50;99.90;;;;;;5014908;28;20200;-41
2022/04/29 00:20:45;;;;;;;13.90;6.47;;;8.50;99.90;;;;;;5014974;28;20177;-43
2022/04/29 00:23:11;;;;;;;13.50;6.43;;;8.50;99.90;;;;;;5014866;28;20180;-41
2022/04/29 00:25:36;;;;;;;10.27;6.27;;;8.50;99.90;;;;;;5015083;28;20194;-40
2022/04/29 00:28:03;;;;;;;11.53;6.33;;;8.40;99.90;;;;;;5014696;28;20248;-39
2022/04/29 00:30:29;;;;;;;9.13;6.50;;;8.50;99.90;;;;;;5014789;28;20653;-41
2022/04/29 00:32:55;;;;;;;12.27;6.63;;;8.50;99.90;;;;;;5014432;28;20272;-40
2022/04/29 00:35:21;;;;;;;11.27;7.17;;;8.50;99.90;;;;;;5014594;28;20213;-40
2022/04/29 00:37:49;;;;;;;12.03;7.30;;;8.60;99.90;;;;;;5014662;28;20214;-42
2022/04/29 00:40:24;;;;;;;11.10;6.90;;;8.60;99.90;;;;;;5014632;28;20232;-38
2022/04/29 00:42:50;;;;;;;14.63;7.63;;;8.70;99.90;;;;;;5014593;28;20162;-38
2022/04/29 00:45:18;;;;;;;14.77;7.57;;;8.80;99.90;;;;;;5014483;28;20181;-40
2022/04/29 00:47:45;;;;;;;13.90;6.97;;;8.80;99.90;;;;;;5014620;28;20205;-40
2022/04/29 00:50:12;;;;;;;14.93;7.00;;;8.80;99.90;;;;;;5014951;28;20227;-38
2022/04/29 00:52:42;;;;;;;12.90;7.40;;;8.80;99.90;;;;;;5014452;28;20174;-40
2022/04/29 00:55:09;;;;;;;14.33;7.00;;;8.80;99.90;;;;;;5014355;28;20197;-40
2022/04/29 00:57:47;;;;;;;12.67;7.40;;;8.80;99.90;;;;;;5014543;28;20198;-40
2022/04/29 01:00:18;;;;;;;13.83;7.97;;;8.90;99.90;;;;;;5014768;28;20173;-39
2022/04/29 01:02:46;;;;;;;12.63;7.37;;;8.90;99.90;;;;;;5014531;28;20166;-38
2022/04/29 01:05:15;;;;;;;12.93;7.30;;;8.90;99.90;;;;;;5014484;28;20729;-37
2022/04/29 01:07:42;;;;;;;15.50;7.33;;;8.90;99.90;;;;;;5014345;28;20339;-38
2022/04/29 01:10:12;;;;;;;11.60;7.10;;;8.90;99.90;;;;;;5014077;28;20642;-40
2022/04/29 01:12:42;;;;;;;11.87;8.07;;;8.90;99.90;;;;;;5014102;28;20165;-40
2022/04/29 01:15:14;;;;;;;14.30;7.33;;;8.90;99.90;;;;;;5014258;28;20236;-38
2022/04/29 01:17:46;;;;;;;12.70;8.37;;;8.90;99.90;;;;;;5014495;28;20272;-41
2022/04/29 01:20:17;;;;;;;14.43;8.33;;;8.90;99.90;;;;;;5014205;28;20173;-38
2022/04/29 01:22:43;;;;;;;12.20;7.33;;;8.90;99.90;;;;;;5014150;28;20236;-41
2022/04/29 01:25:11;;;;;;;10.73;7.50;;;8.90;99.90;;;;;;5013820;28;20594;-39
2022/04/29 01:27:37;;;;;;;14.70;7.70;;;8.90;99.90;;;;;;5014026;28;20206;-38
2022/04/29 01:30:02;;;;;;;10.50;7.20;;;8.80;99.90;;;;;;5014311;28;20232;-41
2022/04/29 01:32:30;;;;;;;12.40;7.20;;;8.80;99.90;;;;;;5013943;28;20211;-39
2022/04/29 01:34:56;;;;;;;12.03;7.70;;;8.70;99.90;;;;;;5013905;28;20197;-39
2022/04/29 01:37:22;;;;;;;14.07;8.27;;;8.80;99.90;;;;;;5013752;28;20213;-39
2022/04/29 01:39:48;;;;;;;12.87;7.73;;;8.70;99.90;;;;;;5013579;28;20196;-40
2022/04/29 01:42:13;;;;;;;15.27;8.07;;;8.70;99.90;;;;;;5013606;28;20174;-37
2022/04/29 01:44:39;;;;;;;16.60;8.40;;;8.90;99.90;;;;;;5013461;28;20174;-41
2022/04/29 01:47:05;;;;;;;12.87;7.83;;;8.70;99.90;;;;;;5013006;28;20570;-40
2022/04/29 01:49:30;;;;;;;14.37;8.10;;;8.70;99.90;;;;;;5013603;28;20174;-39
2022/04/29 01:51:57;;;;;;;14.60;8.90;;;8.70;99.90;;;;;;5013478;28;20266;-41
2022/04/29 01:54:22;;;;;;;12.90;8.60;;;8.60;99.90;;;;;;5013602;28;20252;-40
2022/04/29 01:56:52;;;;;;;10.80;7.83;;;8.60;99.90;;;;;;5012159;28;20263;-41
2022/04/29 01:59:17;;;;;;;11.13;7.83;;;8.60;99.90;;;;;;5013392;28;20657;-39
2022/04/29 02:01:43;;;;;;;14.23;9.57;;;8.60;99.90;;;;;;5013426;28;20232;-40
2022/04/29 02:04:09;;;;;;;13.30;7.87;;;8.60;99.90;;;;;;5013488;28;20220;-39
2022/04/29 02:06:37;;;;;;;10.97;7.97;;;8.50;99.90;;;;;;5013326;28;20194;-41
2022/04/29 02:09:03;;;;;;;16.20;8.27;;;8.60;99.90;;;;;;5013593;28;20205;-37
2022/04/29 02:11:29;;;;;;;13.43;8.13;;;8.50;99.90;;;;;;5013608;28;20173;-40
2022/04/29 02:13:54;;;;;;;18.87;8.03;;;8.50;99.90;;;;;;5014442;28;20184;-41
2022/04/29 02:16:20;;;;;;;15.33;9.13;;;8.50;99.90;;;;;;5013568;28;20724;-40
2022/04/29 02:18:46;;;;;;;14.93;9.17;;;8.50;99.90;;;;;;5013305;28;20181;-37
2022/04/29 02:21:11;;;;;;;16.83;10.00;;;8.50;99.90;;;;;;5013522;28;20204;-40
2022/04/29 02:23:37;;;;;;;14.20;9.37;;;8.50;99.90;;;;;;5013254;28;20537;-38
2022/04/29 02:26:03;;;;;;;18.67;9.67;;;8.50;99.90;;;;;;5013116;28;20251;-40
2022/04/29 02:28:31;;;;;;;15.23;9.47;;;8.50;99.90;;;;;;5013182;28;20189;-38
2022/04/29 02:30:57;;;;;;;14.23;9.37;;;8.50;99.90;;;;;;5013069;28;20192;-38
2022/04/29 02:33:23;;;;;;;22.00;10.73;;;8.50;99.90;;;;;;5013102;28;20186;-41
2022/04/29 02:35:49;;;;;;;16.00;10.00;;;8.50;99.90;;;;;;5013322;28;20236;-39
2022/04/29 02:38:15;;;;;;;16.90;10.73;;;8.50;99.90;;;;;;5013311;28;20201;-38
2022/04/29 02:40:41;;;;;;;18.20;11.67;;;8.50;99.90;;;;;;5011880;28;20656;-39
2022/04/29 02:43:06;;;;;;;18.20;11.00;;;8.60;99.90;;;;;;5013047;28;20265;-40
2022/04/29 02:45:32;;;;;;;16.40;11.73;;;8.60;99.90;;;;;;5013308;28;20181;-40
2022/04/29 02:47:58;;;;;;;18.57;10.70;;;8.60;99.90;;;;;;5013200;28;20260;-43
2022/04/29 02:50:24;;;;;;;19.93;11.73;;;8.60;99.90;;;;;;5012957;28;20190;-41
2022/04/29 02:52:50;;;;;;;16.83;10.80;;;8.60;99.90;;;;;;5013013;28;20186;-42
2022/04/29 02:55:16;;;;;;;19.60;11.00;;;8.60;99.90;;;;;;5012920;28;20228;-39
2022/04/29 02:57:41;;;;;;;16.70;11.30;;;8.60;99.90;;;;;;5015343;28;20290;-41
2022/04/29 03:00:07;;;;;;;16.70;10.63;;;8.60;99.90;;;;;;5016499;28;20174;-41
2022/04/29 03:02:33;;;;;;;18.27;12.20;;;8.60;99.90;;;;;;5016616;28;20653;-39
2022/04/29 03:04:58;;;;;;;20.70;12.53;;;8.60;99.90;;;;;;5016454;28;20219;-40
2022/04/29 03:07:24;;;;;;;20.27;11.37;;;8.60;99.90;;;;;;5016335;28;20229;-41
2022/04/29 03:09:50;;;;;;;17.60;12.07;;;8.60;99.90;;;;;;5016870;28;20181;-39
2022/04/29 03:12:15;;;;;;;16.13;10.47;;;8.50;99.90;;;;;;5016899;28;20596;-40
2022/04/29 03:14:41;;;;;;;16.93;10.70;;;8.50;99.90;;;;;;5016588;28;20201;-41
2022/04/29 03:18:17;;;;;;;17.77;11.10;;;8.50;99.90;;;;;;5016431;28;20185;-38
2022/04/29 03:19:53;;;;;;;14.53;10.87;;;8.50;99.90;;;;;;5016048;28;20181;-39
2022/04/29 03:22:18;;;;;;;16.50;10.97;;;8.40;99.90;;;;;;5016083;28;20197;-38
2022/04/29 03:24:44;;;;;;;20.60;12.20;;;8.40;99.90;;;;;;5016084;28;20180;-39
2022/04/29 03:27:09;;;;;;;23.03;12.70;;;8.30;99.90;;;;;;5016192;28;20750;-39
2022/04/29 03:29:35;;;;;;;19.17;12.20;;;8.30;99.90;;;;;;5015957;28;20178;-41
2022/04/29 03:32:00;;;;;;;18.27;12.27;;;8.30;99.90;;;;;;5016767;28;20209;-40
2022/04/29 03:34:26;;;;;;;15.73;12.17;;;8.20;99.90;;;;;;5016026;28;20205;-38
2022/04/29 03:36:52;;;;;;;17.57;12.43;;;8.20;99.90;;;;;;5016012;28;20202;-40
2022/04/29 03:39:18;;;;;;;19.27;11.63;;;8.20;99.90;;;;;;5015673;28;20201;-38
2022/04/29 03:41:45;;;;;;;18.50;11.20;;;8.10;99.90;;;;;;5015928;28;20178;-40
2022/04/29 03:44:11;;;;;;;15.03;11.33;;;8.10;99.90;;;;;;5016181;28;20184;-38
2022/04/29 03:46:36;;;;;;;17.90;11.73;;;8.10;99.90;;;;;;5015582;28;20194;-40
2022/04/29 03:51:46;;;;;;;20.97;12.70;;;8.00;99.90;;;;;;5015568;28;20220;-41
2022/04/29 03:54:12;;;;;;;21.47;12.57;;;8.10;99.90;;;;;;5015398;28;20185;-40
2022/04/29 03:56:37;;;;;;;17.40;11.67;;;8.00;99.90;;;;;;5016078;28;20206;-39
2022/04/29 03:59:03;;;;;;;19.33;12.73;;;8.00;99.90;;;;;;5015708;28;20157;-38
2022/04/29 04:01:29;;;;;;;17.03;13.17;;;8.00;99.90;;;;;;5015624;28;20178;-38
2022/04/29 04:03:55;;;;;;;22.13;12.63;;;8.00;99.90;;;;;;5015531;28;20178;-37
2022/04/29 04:09:05;;;;;;;19.90;11.83;;;8.00;99.90;;;;;;5014413;28;20180;-41
2022/04/29 04:11:30;;;;;;;20.33;12.87;;;8.00;99.90;;;;;;5015482;28;20580;-39
2022/04/29 04:13:56;;;;;;;21.40;13.70;;;7.90;99.90;;;;;;5015448;28;20174;-40
2022/04/29 04:16:24;;;;;;;17.90;12.77;;;7.90;99.90;;;;;;5015582;28;20271;-41
2022/04/29 04:18:50;;;;;;;20.50;13.93;;;7.90;99.90;;;;;;5015263;28;20244;-40
2022/04/29 04:21:16;;;;;;;19.83;12.97;;;7.90;99.90;;;;;;5015260;28;20181;-42
2022/04/29 04:23:42;;;;;;;23.70;13.17;;;7.90;99.90;;;;;;5015243;28;20181;-40
2022/04/29 04:26:07;;;;;;;19.53;13.53;;;7.80;99.90;;;;;;5014883;28;20185;-40
2022/04/29 04:28:33;;;;;;;19.10;12.50;;;7.80;99.90;;;;;;5015344;28;20720;-40
2022/04/29 04:30:58;;;;;;;19.60;12.60;;;7.80;99.90;;;;;;5014810;28;20182;-38
2022/04/29 04:33:24;;;;;;;17.77;12.47;;;7.80;99.90;;;;;;5014890;28;20261;-40
2022/04/29 04:35:50;;;;;;;19.13;13.63;;;7.80;99.90;;;;;;5015120;28;20232;-44
2022/04/29 04:38:15;;;;;;;25.63;13.53;;;7.80;99.90;;;;;;5016935;28;20221;-44
2022/04/29 04:40:42;;;;;;;20.40;13.87;;;7.80;99.90;;;;;;5016959;28;20169;-46
2022/04/29 04:43:08;;;;;;;17.07;12.70;;;7.80;99.90;;;;;;5016973;28;20256;-44
2022/04/29 04:45:34;;;;;;;21.70;14.07;;;7.80;99.90;;;;;;5017116;28;20558;-45
2022/04/29 04:47:59;;;;;;;22.17;14.13;;;7.80;99.90;;;;;;5016554;28;20319;-44
2022/04/29 04:50:25;;;;;;;23.43;14.83;;;7.80;99.90;;;;;;5016589;28;20665;-43
2022/04/29 04:52:50;;;;;;;20.60;12.60;;;7.90;99.90;;;;;;5017629;28;20661;-45
2022/04/29 04:55:16;;;;;;;26.30;14.93;;;7.90;99.90;;;;;;5016134;28;20291;-45
2022/04/29 04:57:42;;;;;;;18.23;12.33;;;7.80;99.90;;;;;;5016640;28;20211;-46
2022/04/29 05:00:08;;;;;;;17.60;13.23;;;7.90;99.90;;;;;;5017156;28;20178;-46
2022/04/29 05:02:34;;;;;;;18.77;13.90;;;7.90;99.90;;;;;;5017313;28;20252;-45
2022/04/29 05:04:59;;;;;;;18.73;13.57;;;7.90;99.90;;;;;;5015239;28;20650;-45
2022/04/29 05:07:25;;;;;;;17.60;12.60;;;8.00;99.90;;;;;;5016131;28;20199;-45
2022/04/29 05:09:51;;;;;;;18.57;12.03;;;8.00;99.90;;;;;;5016232;28;20177;-45
2022/04/29 05:12:16;;;;;;;23.87;13.67;;;8.00;99.90;;;;;;5016099;28;20215;-44
2022/04/29 05:14:42;;;;;;;18.03;12.07;;;8.00;99.90;;;;;;5015969;28;20218;-46
2022/04/29 05:17:07;;;;;;;20.20;13.17;;;8.00;99.90;;;;;;5016035;28;20200;-45
2022/04/29 05:19:33;;;;;;;19.83;13.37;;;8.10;99.90;;;;;;5015869;28;20308;-45
2022/04/29 05:21:58;;;;;;;21.37;12.13;;;8.10;99.90;;;;;;5015667;28;20526;-47
2022/04/29 05:24:24;;;;;;;18.00;13.27;;;8.20;99.90;;;;;;5015040;28;20563;-45
2022/04/29 05:26:50;;;;;;;27.73;15.27;;;8.20;99.90;;;;;;5015729;28;20620;-43
2022/04/29 05:29:15;;;;;;;15.80;11.77;;;8.20;99.90;;;;;;5016531;28;20188;-43
2022/04/29 05:31:41;;;;;;;19.07;11.73;;;8.30;99.90;;;;;;5016847;28;20181;-43
2022/04/29 05:34:06;;;;;;;23.00;13.80;;;8.40;99.90;;;;;;5016258;28;20223;-44
2022/04/29 05:36:35;;;;;;;24.40;12.43;;;8.40;99.90;;;;;;5016373;28;20197;-44
2022/04/29 05:44:29;;;;;;;23.10;13.73;;;8.50;99.90;;;;;;5016066;28;20204;-45
2022/04/29 05:46:54;;;;;;;20.77;14.23;;;8.60;99.90;;;;;;5016336;28;20200;-45
2022/04/29 05:49:20;;;;;;;22.67;13.57;;;8.70;99.90;;;;;;5017400;28;20196;-46
2022/04/29 05:51:46;;;;;;;17.17;11.87;;;8.70;99.90;;;;;;5016588;28;20181;-44
2022/04/29 05:54:11;;;;;;;24.23;13.23;;;8.70;99.90;;;;;;5016571;28;20192;-45
2022/04/29 05:56:37;;;;;;;22.43;13.20;;;8.80;99.90;;;;;;5016668;28;20209;-45
2022/04/29 05:59:02;;;;;;;20.23;13.10;;;8.90;99.90;;;;;;5016429;28;20217;-43
2022/04/29 06:01:28;;;;;;;23.90;13.93;;;8.90;99.90;;;;;;5017001;28;20176;-42
2022/04/29 06:03:54;;;;;;;23.07;13.97;;;8.90;99.90;;;;;;5017324;28;20181;-43
2022/04/29 06:06:19;;;;;;;21.07;14.43;;;8.90;99.90;;;;;;5016743;28;20291;-45
2022/04/29 06:08:45;;;;;;;21.93;12.80;;;9.00;99.90;;;;;;5017220;28;20602;-45
2022/04/29 06:11:11;;;;;;;17.10;12.90;;;9.00;99.90;;;;;;5016735;28;20181;-43
2022/04/29 06:13:38;;;;;;;20.90;13.30;;;9.00;99.90;;;;;;5016718;28;20195;-43
2022/04/29 06:16:05;;;;;;;20.93;12.87;;;9.10;99.90;;;;;;5018318;28;20193;-43
2022/04/29 06:18:32;;;;;;;19.90;13.57;;;9.10;99.90;;;;;;5016959;28;20232;-46
2022/04/29 06:20:58;;;;;;;20.20;12.53;;;9.10;99.90;;;;;;5017196;28;20184;-45
2022/04/29 06:23:24;;;;;;;19.17;11.93;;;9.10;99.90;;;;;;5017364;28;20198;-45
2022/04/29 06:25:49;;;;;;;15.27;11.50;;;9.10;99.90;;;;;;5016819;28;20178;-42
2022/04/29 06:28:15;;;;;;;16.47;12.13;;;9.10;99.90;;;;;;5017752;28;20202;-44
2022/04/29 06:30:41;;;;;;;21.63;11.40;;;9.10;99.90;;;;;;5016747;28;20238;-44
2022/04/29 06:33:07;;;;;;;21.80;11.93;;;9.10;99.90;;;;;;5020349;28;20565;-46
2022/04/29 06:35:35;;;;;;;18.00;11.97;;;9.10;99.90;;;;;;5021292;28;20228;-46
2022/04/29 06:38:00;;;;;;;23.07;13.57;;;9.20;99.90;;;;;;5020056;28;20197;-44
2022/04/29 06:40:27;;;;;;;22.97;12.47;;;9.20;99.90;;;;;;5020657;28;20174;-46
2022/04/29 06:42:53;;;;;;;17.90;11.70;;;9.20;99.90;;;;;;5020663;28;20186;-44
2022/04/29 06:45:19;;;;;;;21.17;12.80;;;9.30;99.90;;;;;;5021202;28;20169;-46
2022/04/29 06:47:44;;;;;;;18.30;12.97;;;9.30;99.90;;;;;;5020233;28;20288;-43
2022/04/29 06:50:12;;;;;;;18.53;11.60;;;9.30;99.90;;;;;;5020908;28;20193;-45
2022/04/29 06:52:37;;;;;;;15.27;11.37;;;9.30;99.90;;;;;;5020873;28;20192;-44
2022/04/29 06:55:04;;;;;;;17.13;11.83;;;9.30;99.90;;;;;;5020775;28;20209;-45
2022/04/29 06:57:30;;;;;;;17.43;11.30;;;9.30;99.90;;;;;;5021353;28;20209;-45
2022/04/29 06:59:56;;;;;;;21.97;11.43;;;9.40;99.90;;;;;;5021258;28;20196;-43
2022/04/29 07:02:23;;;;;;;20.57;12.43;;;9.40;99.90;;;;;;5021319;28;20177;-46
2022/04/29 07:04:49;;;;;;;18.20;11.63;;;9.40;99.90;;;;;;5021596;28;20658;-45
2022/04/29 07:07:16;;;;;;;20.03;11.47;;;9.40;99.90;;;;;;5021014;28;20197;-45
2022/04/29 07:09:43;;;;;;;18.40;10.43;;;9.40;99.90;;;;;;5020209;28;20190;-45
2022/04/29 07:12:09;;;;;;;20.70;10.47;;;9.40;99.90;;;;;;5020306;28;20566;-46
2022/04/29 07:14:35;;;;;;;17.97;11.57;;;9.40;99.90;;;;;;5020323;28;20210;-47
2022/04/29 07:17:01;;;;;;;16.60;10.47;;;9.50;99.90;;;;;;5020011;28;20720;-47
2022/04/29 07:19:26;;;;;;;16.33;10.73;;;9.60;99.90;;;;;;5019932;28;20257;-45
2022/04/29 07:21:52;;;;;;;16.30;10.90;;;9.70;99.90;;;;;;5019424;28;20220;-47
2022/04/29 07:24:18;;;;;;;14.17;10.83;;;9.70;99.90;;;;;;5019660;28;20212;-45
2022/04/29 07:26:44;;;;;;;17.00;10.93;;;9.80;99.90;;;;;;5019157;28;20197;-45
2022/04/29 07:29:10;;;;;;;17.57;10.17;;;9.90;99.90;;;;;;5019792;28;20174;-47
2022/04/29 07:31:35;;;;;;;13.73;10.20;;;10.00;99.90;;;;;;5019740;28;20292;-43
2022/04/29 07:34:01;;;;;;;15.43;9.97;;;10.00;99.90;;;;;;5018956;28;20657;-44
2022/04/29 07:42:06;;;;;;;15.70;10.30;;;10.00;99.90;;;;;;4982447;28;20195;-47
2022/04/29 07:44:31;;;;;;;18.80;11.33;;;10.10;99.90;;;;;;5017583;28;20170;-43
2022/04/29 07:46:57;;;;;;;18.87;11.00;;;10.20;99.90;;;;;;5020237;28;20223;-42
2022/04/29 07:49:23;;;;;;;16.70;11.00;;;10.20;99.90;;;;;;5020426;28;20186;-45
2022/04/29 07:51:48;;;;;;;18.13;10.77;;;10.20;99.90;;;;;;5019963;28;20601;-43
2022/04/29 07:54:15;;;;;;;20.10;11.40;;;10.30;99.90;;;;;;5020004;28;20654;-44
2022/04/29 07:56:40;;;;;;;23.50;12.00;;;10.30;99.90;;;;;;5019875;28;20205;-46
2022/04/29 07:59:06;;;;;;;15.73;10.13;;;10.40;99.90;;;;;;5019318;28;20181;-45
2022/04/29 08:01:34;;;;;;;18.37;10.40;;;10.40;99.90;;;;;;5020138;28;20525;-45
2022/04/29 08:04:00;;;;;;;18.37;10.90;;;10.50;99.90;;;;;;5019576;28;20184;-45
2022/04/29 08:06:26;;;;;;;16.47;10.17;;;10.50;99.90;;;;;;5019911;28;20571;-46
2022/04/29 08:08:52;;;;;;;20.90;11.37;;;10.50;99.90;;;;;;5019660;28;20191;-44
2022/04/29 08:11:18;;;;;;;18.03;10.10;;;10.60;99.90;;;;;;5019018;28;20190;-45
2022/04/29 08:13:44;;;;;;;20.57;10.60;;;10.70;99.90;;;;;;5019305;28;20236;-45
2022/04/29 08:16:11;;;;;;;15.90;10.50;;;10.70;99.90;;;;;;5019563;28;20201;-42
2022/04/29 08:18:37;;;;;;;20.83;11.00;;;10.70;99.90;;;;;;5019348;28;20183;-46
2022/04/29 08:21:03;;;;;;;13.20;10.23;;;10.80;99.90;;;;;;5019178;28;20187;-47
2022/04/29 08:23:28;;;;;;;20.67;10.83;;;10.90;99.90;;;;;;5018939;28;20178;-45
2022/04/29 08:25:54;;;;;;;19.00;11.30;;;10.90;99.90;;;;;;5019251;28;20184;-45
2022/04/29 08:28:19;;;;;;;17.33;11.17;;;10.90;99.90;;;;;;5018146;28;20343;-45
2022/04/29 08:30:46;;;;;;;14.43;10.93;;;11.10;99.90;;;;;;5017655;28;20181;-45
2022/04/29 08:33:13;;;;;;;18.50;10.27;;;11.10;99.90;;;;;;5014874;28;20183;-43
2022/04/29 08:35:39;;;;;;;19.03;10.57;;;11.20;99.90;;;;;;5014955;28;20264;-43
2022/04/29 08:38:09;;;;;;;21.00;11.20;;;11.20;99.90;;;;;;5014926;28;20281;-46
2022/04/29 08:40:35;;;;;;;16.60;10.97;;;11.30;99.90;;;;;;5014764;28;20223;-46
2022/04/29 08:43:04;;;;;;;19.57;10.43;;;11.40;99.90;;;;;;5015088;28;20173;-44
2022/04/29 08:45:30;;;;;;;18.83;10.63;;;11.40;99.90;;;;;;5014807;28;20291;-44
2022/04/29 08:47:56;;;;;;;16.37;11.07;;;11.60;99.90;;;;;;5014383;28;20663;-44
2022/04/29 08:50:22;;;;;;;20.03;10.97;;;11.70;99.90;;;;;;5014453;28;20185;-45
2022/04/29 08:52:49;;;;;;;14.10;10.27;;;11.70;99.90;;;;;;5014455;28;20523;-47
2022/04/29 09:00:45;;;;;;;22.73;11.93;;;12.00;99.90;;;;;;5014621;28;20171;-46
2022/04/29 09:03:14;;;;;;;18.63;10.07;;;12.10;99.90;;;;;;5014843;28;20669;-44
2022/04/29 09:05:44;;;;;;;17.70;11.20;;;12.20;99.90;;;;;;5014521;28;20177;-45
2022/04/29 09:08:17;;;;;;;27.17;11.50;;;12.40;99.90;;;;;;5014188;28;20287;-42
2022/04/29 09:10:51;;;;;;;19.53;11.73;;;12.40;99.90;;;;;;5014382;28;20193;-45
2022/04/29 09:13:24;;;;;;;17.33;10.23;;;12.40;99.90;;;;;;5014106;28;20599;-46
2022/04/29 09:15:57;;;;;;;18.00;11.23;;;12.60;99.90;;;;;;5013980;28;20204;-45
2022/04/29 09:18:51;;;;;;;17.57;11.67;;;12.60;99.90;;;;;;5014227;28;20677;-45
2022/04/29 09:21:24;;;;;;;21.30;12.57;;;12.70;99.90;;;;;;5014003;28;20630;-45
2022/04/29 09:23:55;;;;;;;18.17;10.93;;;12.70;99.90;;;;;;5014240;28;20166;-46
2022/04/29 09:26:27;;;;;;;19.40;11.53;;;12.60;99.90;;;;;;5013880;28;20205;-47
2022/04/29 09:28:55;;;;;;;16.37;11.57;;;12.70;99.90;;;;;;5013961;28;20634;-46
2022/04/29 09:31:21;;;;;;;23.80;11.97;;;12.80;99.90;;;;;;5014092;28;20182;-46
2022/04/29 09:33:55;;;;;;;19.13;11.30;;;12.90;99.90;;;;;;5013831;28;20184;-43
2022/04/29 09:36:26;;;;;;;18.83;11.00;;;13.20;99.90;;;;;;5013967;28;20292;-47
2022/04/29 09:41:38;;;;;;;19.30;11.50;;;13.30;99.90;;;;;;5013747;28;20706;-47
2022/04/29 09:44:04;;;;;;;21.27;10.10;;;13.30;99.90;;;;;;5014091;28;20253;-46
2022/04/29 09:46:29;;;;;;;19.23;11.03;;;13.30;99.90;;;;;;5013655;28;20230;-40
2022/04/29 09:49:06;;;;;;;24.07;11.37;;;13.20;99.90;;;;;;5013775;28;20173;-44
2022/04/29 09:51:47;;;;;;;20.93;11.73;;;13.30;99.90;;;;;;5013912;28;20168;-42
2022/04/29 09:54:17;;;;;;;21.70;11.03;;;13.40;99.90;;;;;;5013770;28;20231;-43
2022/04/29 09:57:01;;;;;;;19.83;10.33;;;13.50;99.90;;;;;;5013792;28;20196;-45
2022/04/29 09:59:33;;;;;;;19.97;10.53;;;13.50;99.90;;;;;;5013564;28;20573;-45
2022/04/29 10:01:59;;;;;;;22.33;10.47;;;13.50;99.90;;;;;;5013808;28;20173;-45
2022/04/29 10:04:26;;;;;;;18.50;11.27;;;13.60;99.90;;;;;;5013950;28;20235;-45
2022/04/29 10:06:52;;;;;;;18.47;9.63;;;13.50;99.90;;;;;;5014745;28;20284;-46
2022/04/29 10:09:19;;;;;;;15.37;10.70;;;13.50;99.90;;;;;;5017743;28;20181;-46
2022/04/29 10:11:45;;;;;;;16.43;10.30;;;13.40;99.90;;;;;;5017727;28;20184;-44
2022/04/29 10:14:16;;;;;;;16.43;9.57;;;13.40;99.90;;;;;;5017642;28;20182;-45
2022/04/29 10:21:15;;;;;;;16.87;10.37;;;13.50;99.90;;;;;;5017914;28;20194;-46
2022/04/29 10:22:17;;;;;;;21.40;10.83;;;13.60;99.90;;;;;;5017524;28;20240;-45
2022/04/29 10:24:43;;;;;;;22.10;10.03;;;13.70;99.90;;;;;;5017557;28;20177;-46
2022/04/29 10:27:09;;;;;;;15.43;10.10;;;13.80;99.90;;;;;;5017465;28;20201;-46
2022/04/29 10:29:35;;;;;;;16.93;9.77;;;13.90;99.90;;;;;;5018280;28;20224;-47
2022/04/29 10:32:08;;;;;;;19.80;10.00;;;14.00;99.90;;;;;;5018252;28;20657;-47
2022/04/29 10:34:35;;;;;;;18.67;10.13;;;14.10;99.90;;;;;;5016965;28;20288;-45
2022/04/29 10:37:01;;;;;;;15.73;9.67;;;14.20;99.90;;;;;;5017192;28;20283;-46
2022/04/29 10:39:27;;;;;;;15.97;10.13;;;14.30;99.90;;;;;;5016868;28;20200;-44
2022/04/29 10:42:01;;;;;;;19.57;10.80;;;14.40;99.90;;;;;;5016961;28;20177;-45
2022/04/29 10:44:27;;;;;;;16.63;9.83;;;14.40;99.90;;;;;;5016886;28;20226;-46
2022/04/29 10:46:53;;;;;;;13.93;10.07;;;14.50;99.90;;;;;;5017069;28;20201;-45
2022/04/29 10:49:30;;;;;;;16.17;9.87;;;14.50;99.90;;;;;;5017086;28;20712;-47
2022/04/29 10:52:01;;;;;;;17.73;10.00;;;14.70;99.90;;;;;;5016682;28;20181;-46
2022/04/29 10:54:33;;;;;;;14.77;9.63;;;14.60;99.90;;;;;;5016548;28;20661;-46
2022/04/29 10:57:07;;;;;;;16.03;10.13;;;14.50;99.90;;;;;;5016622;28;20272;-45
2022/04/29 10:59:53;;;;;;;15.30;9.00;;;14.50;99.90;;;;;;5016585;28;20632;-45
2022/04/29 11:02:28;;;;;;;20.37;9.70;;;14.60;99.90;;;;;;5017020;28;20570;-45
2022/04/29 11:04:56;;;;;;;17.80;9.90;;;14.70;99.90;;;;;;5016828;28;20184;-46
2022/04/29 11:07:39;;;;;;;16.87;10.53;;;14.80;99.90;;;;;;5016959;28;20201;-46
2022/04/29 11:10:06;;;;;;;18.80;10.17;;;14.80;99.90;;;;;;5016375;28;20173;-44
2022/04/29 11:12:37;;;;;;;14.63;8.97;;;14.80;99.90;;;;;;5016582;28;20197;-46
2022/04/29 11:15:18;;;;;;;22.27;10.23;;;14.90;99.90;;;;;;5016457;28;20209;-46
2022/04/29 11:17:45;;;;;;;15.27;9.20;;;14.90;99.90;;;;;;5015917;28;20189;-46
2022/04/29 11:20:15;;;;;;;15.83;9.87;;;14.90;99.90;;;;;;5016362;28;20165;-47
2022/04/29 11:25:25;;;;;;;16.10;9.40;;;15.10;99.90;;;;;;5016509;28;20181;-47
2022/04/29 11:27:51;;;;;;;15.93;9.97;;;15.00;99.90;;;;;;5016621;28;20198;-45
2022/04/29 11:30:18;;;;;;;15.90;9.97;;;15.10;99.90;;;;;;5016836;28;20198;-46
2022/04/29 11:32:44;;;;;;;17.83;9.90;;;15.00;99.90;;;;;;5016261;28;20181;-45
2022/04/29 11:35:10;;;;;;;18.40;10.17;;;15.00;99.90;;;;;;5015895;28;20567;-47
2022/04/29 11:37:35;;;;;;;14.93;9.77;;;14.90;99.90;;;;;;5015915;28;20204;-46
2022/04/29 11:40:03;;;;;;;13.47;9.77;;;14.90;99.90;;;;;;5015801;28;20666;-46
2022/04/29 11:42:29;;;;;;;15.33;10.07;;;15.00;99.90;;;;;;5015833;28;20701;-44
2022/04/29 11:44:55;;;;;;;16.03;9.77;;;15.10;99.90;;;;;;5017016;28;20216;-46
2022/04/29 11:47:29;;;;;;;18.20;9.63;;;15.20;99.90;;;;;;5015547;28;20205;-45
2022/04/29 11:49:55;;;;;;;18.50;9.97;;;15.10;99.90;;;;;;5016244;28;20164;-47
2022/04/29 11:52:30;;;;;;;14.97;8.23;;;15.00;99.90;;;;;;5016788;28;20181;-45
2022/04/29 11:55:02;;;;;;;13.33;9.53;;;15.00;99.90;;;;;;5015457;28;20687;-45
2022/04/29 11:57:42;;;;;;;15.50;9.57;;;15.00;99.90;;;;;;5015717;28;20221;-45
2022/04/29 12:00:08;;;;;;;17.20;9.77;;;14.90;99.90;;;;;;5015517;28;20622;-47
2022/04/29 12:02:34;;;;;;;15.50;9.30;;;14.90;99.90;;;;;;5015469;28;20169;-45
2022/04/29 12:05:01;;;;;;;14.93;9.70;;;15.00;99.90;;;;;;5015697;28;20240;-46
2022/04/29 12:07:29;;;;;;;16.17;8.60;;;15.00;99.90;;;;;;5015279;28;20198;-45
2022/04/29 12:09:55;;;;;;;16.00;8.63;;;15.00;99.90;;;;;;5015321;28;20559;-46
2022/04/29 12:12:31;;;;;;;15.23;9.40;;;15.00;99.90;;;;;;5015547;28;20243;-47
2022/04/29 12:15:01;;;;;;;17.40;9.87;;;15.20;99.90;;;;;;5015212;28;20669;-47
2022/04/29 12:17:32;;;;;;;15.50;10.13;;;15.20;99.90;;;;;;5013845;28;20228;-46
2022/04/29 12:19:58;;;;;;;15.80;9.60;;;15.20;99.90;;;;;;5015113;28;20176;-46
2022/04/29 12:22:29;;;;;;;15.13;9.43;;;15.20;99.90;;;;;;5015613;28;20293;-46
2022/04/29 12:24:54;;;;;;;15.30;8.73;;;15.20;99.90;;;;;;5015147;28;20177;-45
2022/04/29 12:27:30;;;;;;;14.97;9.17;;;15.20;99.90;;;;;;5015034;28;20205;-47
2022/04/29 12:35:30;;;;;;;22.30;9.70;;;15.30;99.90;;;;;;5015126;28;20248;-47
2022/04/29 12:37:56;;;;;;;16.23;8.27;;;15.40;99.90;;;;;;5014728;28;20612;-44
2022/04/29 12:40:31;;;;;;;12.80;8.50;;;15.40;99.90;;;;;;5014943;28;20166;-47
2022/04/29 12:43:11;;;;;;;15.97;9.77;;;15.40;99.90;;;;;;5014808;28;20169;-44
2022/04/29 12:45:36;;;;;;;14.53;8.10;;;15.20;99.90;;;;;;5014973;28;20169;-47
2022/04/29 12:48:07;;;;;;;18.73;9.30;;;15.20;99.90;;;;;;5014785;28;20216;-47
2022/04/29 12:50:39;;;;;;;13.37;8.33;;;15.10;99.90;;;;;;5014866;28;20235;-45
2022/04/29 12:53:19;;;;;;;18.30;8.30;;;15.10;99.90;;;;;;5014516;28;20717;-46
2022/04/29 12:59:06;;;;;;;13.30;8.70;;;15.10;99.90;;;;;;5014604;28;20164;-45
2022/04/29 13:01:40;;;;;;;15.87;7.93;;;15.20;99.90;;;;;;5014408;28;20177;-46
2022/04/29 13:04:06;;;;;;;12.40;8.03;;;15.30;99.90;;;;;;5014727;28;20164;-47
2022/04/29 13:06:34;;;;;;;15.57;9.27;;;15.40;99.90;;;;;;5014283;28;20193;-46
2022/04/29 13:09:02;;;;;;;13.43;7.63;;;15.30;99.90;;;;;;5014519;28;20182;-46
2022/04/29 13:11:29;;;;;;;12.13;7.23;;;15.30;99.90;;;;;;5014203;28;20591;-46
2022/04/29 13:13:54;;;;;;;16.73;7.93;;;15.20;99.90;;;;;;5014446;28;20182;-45
2022/04/29 13:16:22;;;;;;;16.90;7.83;;;15.20;99.90;;;;;;5014114;28;20212;-46